sensor_id;sensor_type;location;lat;lon;timestamp;pressure;altitude;pressure_sealevel;temperature;humidity
9523;BME280;63165;43.016;25.784;2022-12-07T00:02:37;100232.28;;;6.95;100.00
9523;BME280;63165;43.016;25.784;2022-12-07T00:05:05;100234.88;;;6.92;100.00
9523;BME280;63165;43.016;25.784;2022-12-07T00:07:32;100227.06;;;6.95;100.00
9523;BME280;63165;43.016;25.784;2022-12-07T00:09:59;100234.88;;;6.95;100.00
9523;BME280;63165;43.016;25.784;2022-12-07T00:12:41;100233.13;;;6.95;100.00
9523;BME280;63165;43.016;25.784;2022-12-07T00:15:09;100238.34;;;6.97;100.00
9523;BME280;63165;43.016;25.784;2022-12-07T00:17:44;100229.66;;;6.93;100.00
9523;BME280;63165;43.016;25.784;2022-12-07T00:20:31;100225.34;;;6.89;100.00
9523;BME280;63165;43.016;25.784;2022-12-07T00:22:58;100231.41;;;6.87;100.00
9523;BME280;63165;43.016;25.784;2022-12-07T00:25:26;100224.47;;;6.87;100.00
9523;BME280;63165;43.016;25.784;2022-12-07T00:27:54;100221.88;;;6.87;100.00
9523;BME280;63165;43.016;25.784;2022-12-07T00:30:22;100221.88;;;6.89;100.00
9523;BME280;63165;43.016;25.784;2022-12-07T00:32:49;100231.41;;;6.90;100.00
9523;BME280;63165;43.016;25.784;2022-12-07T00:35:16;100235.75;;;6.89;100.00
9523;BME280;63165;43.016;25.784;2022-12-07T00:37:57;100247.00;;;6.88;100.00
9523;BME280;63165;43.016;25.784;2022-12-07T00:43:14;100236.59;;;6.88;100.00
9523;BME280;63165;43.016;25.784;2022-12-07T00:45:42;100239.19;;;6.88;100.00
9523;BME280;63165;43.016;25.784;2022-12-07T00:48:09;100245.28;;;6.89;100.00
9523;BME280;63165;43.016;25.784;2022-12-07T00:50:36;100244.41;;;6.88;100.00
9523;BME280;63165;43.016;25.784;2022-12-07T00:55:48;100260.91;;;6.89;100.00
9523;BME280;63165;43.016;25.784;2022-12-07T00:58:25;100248.75;;;6.88;100.00
9523;BME280;63165;43.016;25.784;2022-12-07T01:00:52;100248.75;;;6.88;100.00
9523;BME280;63165;43.016;25.784;2022-12-07T01:03:19;100248.72;;;6.86;100.00
9523;BME280;63165;43.016;25.784;2022-12-07T01:06:10;100253.94;;;6.86;100.00
9523;BME280;63165;43.016;25.784;2022-12-07T01:08:52;100246.16;;;6.89;100.00
9523;BME280;63165;43.016;25.784;2022-12-07T01:11:22;100239.19;;;6.88;100.00
9523;BME280;63165;43.016;25.784;2022-12-07T01:14:08;100228.78;;;6.90;100.00
9523;BME280;63165;43.016;25.784;2022-12-07T01:16:35;100227.09;;;6.89;100.00
9523;BME280;63165;43.016;25.784;2022-12-07T01:19:19;100218.41;;;6.85;100.00
9523;BME280;63165;43.016;25.784;2022-12-07T01:21:46;100214.06;;;6.89;100.00
9523;BME280;63165;43.016;25.784;2022-12-07T01:24:22;100207.13;;;6.89;100.00
9523;BME280;63165;43.016;25.784;2022-12-07T01:27:10;100208.00;;;6.91;100.00
9523;BME280;63165;43.016;25.784;2022-12-07T01:29:38;100197.59;;;6.91;100.00
9523;BME280;63165;43.016;25.784;2022-12-07T01:32:06;100188.06;;;6.90;100.00
9523;BME280;63165;43.016;25.784;2022-12-07T01:34:35;100193.28;;;6.89;100.00
9523;BME280;63165;43.016;25.784;2022-12-07T01:37:05;100191.53;;;6.92;100.00
9523;BME280;63165;43.016;25.784;2022-12-07T01:39:32;100199.31;;;6.95;100.00
9523;BME280;63165;43.016;25.784;2022-12-07T01:41:59;100193.28;;;6.96;100.00
9523;BME280;63165;43.016;25.784;2022-12-07T01:44:28;100189.78;;;6.97;100.00
9523;BME280;63165;43.016;25.784;2022-12-07T01:47:00;100196.72;;;6.97;100.00
9523;BME280;63165;43.016;25.784;2022-12-07T01:49:30;100195.88;;;6.96;100.00
9523;BME280;63165;43.016;25.784;2022-12-07T01:52:05;100188.06;;;6.98;100.00
9523;BME280;63165;43.016;25.784;2022-12-07T01:54:37;100190.66;;;6.98;100.00
9523;BME280;63165;43.016;25.784;2022-12-07T01:57:09;100187.19;;;6.99;100.00
9523;BME280;63165;43.016;25.784;2022-12-07T01:59:37;100196.75;;;7.00;100.00
9523;BME280;63165;43.016;25.784;2022-12-07T02:02:12;100185.47;;;6.99;100.00
9523;BME280;63165;43.016;25.784;2022-12-07T02:04:43;100186.34;;;7.02;100.00
9523;BME280;63165;43.016;25.784;2022-12-07T02:07:10;100186.34;;;7.02;100.00
9523;BME280;63165;43.016;25.784;2022-12-07T02:09:38;100187.19;;;7.02;100.00
9523;BME280;63165;43.016;25.784;2022-12-07T02:12:05;100188.06;;;7.01;100.00
9523;BME280;63165;43.016;25.784;2022-12-07T02:14:33;100188.06;;;7.01;100.00
9523;BME280;63165;43.016;25.784;2022-12-07T02:17:11;100175.06;;;6.99;100.00
9523;BME280;63165;43.016;25.784;2022-12-07T02:20:14;100181.97;;;6.97;100.00
9523;BME280;63165;43.016;25.784;2022-12-07T02:26:02;100182.88;;;6.98;100.00
9523;BME280;63165;43.016;25.784;2022-12-07T02:28:56;100188.06;;;6.98;100.00
9523;BME280;63165;43.016;25.784;2022-12-07T02:31:31;100180.25;;;6.93;100.00
9523;BME280;63165;43.016;25.784;2022-12-07T02:34:18;100186.34;;;6.94;100.00
9523;BME280;63165;43.016;25.784;2022-12-07T02:37:03;100185.47;;;6.96;100.00
9523;BME280;63165;43.016;25.784;2022-12-07T02:39:39;100179.38;;;6.97;100.00
9523;BME280;63165;43.016;25.784;2022-12-07T02:42:29;100174.19;;;6.99;100.00
9523;BME280;63165;43.016;25.784;2022-12-07T02:45:08;100173.31;;;6.98;100.00
9523;BME280;63165;43.016;25.784;2022-12-07T02:47:37;100169.88;;;6.98;100.00
9523;BME280;63165;43.016;25.784;2022-12-07T02:50:12;100173.31;;;6.95;100.00
9523;BME280;63165;43.016;25.784;2022-12-07T02:52:40;100163.78;;;6.93;100.00
9523;BME280;63165;43.016;25.784;2022-12-07T02:55:08;100156.84;;;6.95;100.00
9523;BME280;63165;43.016;25.784;2022-12-07T02:57:45;100155.09;;;6.97;100.00
9523;BME280;63165;43.016;25.784;2022-12-07T03:00:26;100159.44;;;6.95;100.00
9523;BME280;63165;43.016;25.784;2022-12-07T03:02:58;100156.84;;;6.95;100.00
9523;BME280;63165;43.016;25.784;2022-12-07T03:05:36;100156.00;;;6.96;100.00
9523;BME280;63165;43.016;25.784;2022-12-07T03:08:15;100154.25;;;6.98;100.00
9523;BME280;63165;43.016;25.784;2022-12-07T03:10:56;100153.38;;;7.02;100.00
9523;BME280;63165;43.016;25.784;2022-12-07T03:13:35;100157.69;;;7.05;100.00
9523;BME280;63165;43.016;25.784;2022-12-07T03:16:09;100158.56;;;7.10;100.00
9523;BME280;63165;43.016;25.784;2022-12-07T03:18:43;100150.78;;;7.10;100.00
9523;BME280;63165;43.016;25.784;2022-12-07T03:21:16;100158.56;;;7.11;100.00
9523;BME280;63165;43.016;25.784;2022-12-07T03:23:48;100160.28;;;7.12;100.00
9523;BME280;63165;43.016;25.784;2022-12-07T03:26:19;100158.56;;;7.16;100.00
9523;BME280;63165;43.016;25.784;2022-12-07T03:28:51;100153.38;;;7.17;100.00
9523;BME280;63165;43.016;25.784;2022-12-07T03:31:22;100155.09;;;7.18;100.00
9523;BME280;63165;43.016;25.784;2022-12-07T03:33:57;100144.69;;;7.18;100.00
9523;BME280;63165;43.016;25.784;2022-12-07T03:36:37;100138.59;;;7.18;100.00
9523;BME280;63165;43.016;25.784;2022-12-07T03:39:14;100133.44;;;7.16;100.00
9523;BME280;63165;43.016;25.784;2022-12-07T03:41:44;100130.84;;;7.16;100.00
9523;BME280;63165;43.016;25.784;2022-12-07T03:44:14;100142.09;;;7.15;100.00
9523;BME280;63165;43.016;25.784;2022-12-07T03:46:49;100148.16;;;7.16;100.00
9523;BME280;63165;43.016;25.784;2022-12-07T03:49:30;100152.50;;;7.15;100.00
9523;BME280;63165;43.016;25.784;2022-12-07T03:52:03;100152.50;;;7.15;100.00
9523;BME280;63165;43.016;25.784;2022-12-07T03:54:39;100148.16;;;7.14;100.00
9523;BME280;63165;43.016;25.784;2022-12-07T03:57:10;100140.34;;;7.16;100.00
9523;BME280;63165;43.016;25.784;2022-12-07T03:59:39;100142.09;;;7.18;100.00
9523;BME280;63165;43.016;25.784;2022-12-07T04:02:11;100136.00;;;7.19;100.00
9523;BME280;63165;43.016;25.784;2022-12-07T04:04:40;100139.47;;;7.22;100.00
9523;BME280;63165;43.016;25.784;2022-12-07T04:07:08;100135.16;;;7.22;100.00
9523;BME280;63165;43.016;25.784;2022-12-07T04:09:36;100124.75;;;7.22;100.00
9523;BME280;63165;43.016;25.784;2022-12-07T04:12:06;100120.41;;;7.24;100.00
9523;BME280;63165;43.016;25.784;2022-12-07T04:14:36;100119.50;;;7.25;100.00
9523;BME280;63165;43.016;25.784;2022-12-07T04:17:22;100117.78;;;7.27;100.00
9523;BME280;63165;43.016;25.784;2022-12-07T04:19:49;100117.78;;;7.29;100.00
9523;BME280;63165;43.016;25.784;2022-12-07T04:22:16;100111.72;;;7.28;100.00
9523;BME280;63165;43.016;25.784;2022-12-07T04:24:43;100108.25;;;7.28;100.00
9523;BME280;63165;43.016;25.784;2022-12-07T04:27:11;100101.31;;;7.22;100.00
9523;BME280;63165;43.016;25.784;2022-12-07T04:29:38;100096.97;;;7.24;100.00
9523;BME280;63165;43.016;25.784;2022-12-07T04:32:05;100103.03;;;7.26;100.00
9523;BME280;63165;43.016;25.784;2022-12-07T04:34:51;100096.97;;;7.26;100.00
9523;BME280;63165;43.016;25.784;2022-12-07T04:37:18;100093.50;;;7.25;100.00
9523;BME280;63165;43.016;25.784;2022-12-07T04:39:45;100101.31;;;7.27;100.00
9523;BME280;63165;43.016;25.784;2022-12-07T04:42:12;100104.75;;;7.29;100.00
9523;BME280;63165;43.016;25.784;2022-12-07T04:44:40;100100.41;;;7.29;100.00
9523;BME280;63165;43.016;25.784;2022-12-07T04:47:07;100093.50;;;7.30;100.00
9523;BME280;63165;43.016;25.784;2022-12-07T04:49:34;100111.72;;;7.30;100.00
9523;BME280;63165;43.016;25.784;2022-12-07T04:52:04;100093.50;;;7.31;100.00
9523;BME280;63165;43.016;25.784;2022-12-07T04:54:31;100093.50;;;7.31;100.00
9523;BME280;63165;43.016;25.784;2022-12-07T04:56:59;100094.34;;;7.32;100.00
9523;BME280;63165;43.016;25.784;2022-12-07T04:59:26;100099.56;;;7.30;100.00
9523;BME280;63165;43.016;25.784;2022-12-07T05:01:54;100105.63;;;7.31;100.00
9523;BME280;63165;43.016;25.784;2022-12-07T05:04:21;100111.72;;;7.31;100.00
9523;BME280;63165;43.016;25.784;2022-12-07T05:06:49;100105.63;;;7.34;100.00
9523;BME280;63165;43.016;25.784;2022-12-07T05:09:18;100101.28;;;7.34;100.00
9523;BME280;63165;43.016;25.784;2022-12-07T05:11:46;100093.47;;;7.36;100.00
9523;BME280;63165;43.016;25.784;2022-12-07T05:14:15;100103.03;;;7.35;100.00
9523;BME280;63165;43.016;25.784;2022-12-07T05:16:43;100101.28;;;7.36;100.00
9523;BME280;63165;43.016;25.784;2022-12-07T05:19:11;100104.75;;;7.32;100.00
9523;BME280;63165;43.016;25.784;2022-12-07T05:21:38;100096.97;;;7.29;100.00
9523;BME280;63165;43.016;25.784;2022-12-07T05:24:08;100100.44;;;7.26;100.00
9523;BME280;63165;43.016;25.784;2022-12-07T05:26:38;100098.72;;;7.22;100.00
9523;BME280;63165;43.016;25.784;2022-12-07T05:29:20;100097.88;;;7.18;100.00
9523;BME280;63165;43.016;25.784;2022-12-07T05:31:49;100087.47;;;7.18;100.00
9523;BME280;63165;43.016;25.784;2022-12-07T05:34:17;100092.66;;;7.18;100.00
9523;BME280;63165;43.016;25.784;2022-12-07T05:36:45;100095.25;;;7.18;100.00
9523;BME280;63165;43.016;25.784;2022-12-07T05:39:12;100093.50;;;7.19;100.00
9523;BME280;63165;43.016;25.784;2022-12-07T05:41:40;100103.94;;;7.21;100.00
9523;BME280;63165;43.016;25.784;2022-12-07T05:44:25;100097.88;;;7.20;100.00
9523;BME280;63165;43.016;25.784;2022-12-07T05:46:52;100104.78;;;7.19;100.00
9523;BME280;63165;43.016;25.784;2022-12-07T05:49:20;100107.38;;;7.18;100.00
9523;BME280;63165;43.016;25.784;2022-12-07T05:51:47;100110.00;;;7.15;100.00
9523;BME280;63165;43.016;25.784;2022-12-07T05:54:15;100116.06;;;7.15;100.00
9523;BME280;63165;43.016;25.784;2022-12-07T05:56:44;100119.53;;;7.14;100.00
9523;BME280;63165;43.016;25.784;2022-12-07T05:59:11;100125.63;;;7.15;100.00
9523;BME280;63165;43.016;25.784;2022-12-07T06:01:54;100116.06;;;7.15;100.00
9523;BME280;63165;43.016;25.784;2022-12-07T06:04:37;100119.53;;;7.14;100.00
9523;BME280;63165;43.016;25.784;2022-12-07T06:07:05;100117.81;;;7.16;100.00
9523;BME280;63165;43.016;25.784;2022-12-07T06:09:33;100119.53;;;7.19;100.00
9523;BME280;63165;43.016;25.784;2022-12-07T06:12:04;100123.84;;;7.22;100.00
9523;BME280;63165;43.016;25.784;2022-12-07T06:14:48;100124.75;;;7.21;100.00
9523;BME280;63165;43.016;25.784;2022-12-07T06:17:17;100123.88;;;7.18;100.00
9523;BME280;63165;43.016;25.784;2022-12-07T06:19:46;100116.94;;;7.14;100.00
9523;BME280;63165;43.016;25.784;2022-12-07T06:22:15;100118.66;;;7.15;100.00
9523;BME280;63165;43.016;25.784;2022-12-07T06:24:43;100119.53;;;7.16;100.00
9523;BME280;63165;43.016;25.784;2022-12-07T06:27:11;100121.28;;;7.18;100.00
9523;BME280;63165;43.016;25.784;2022-12-07T06:29:39;100119.53;;;7.21;100.00
9523;BME280;63165;43.016;25.784;2022-12-07T06:32:19;100117.78;;;7.23;100.00
9523;BME280;63165;43.016;25.784;2022-12-07T06:34:47;100115.19;;;7.24;100.00
9523;BME280;63165;43.016;25.784;2022-12-07T06:37:14;100115.19;;;7.26;100.00
9523;BME280;63165;43.016;25.784;2022-12-07T06:39:41;100108.25;;;7.25;100.00
9523;BME280;63165;43.016;25.784;2022-12-07T06:42:44;100121.28;;;7.28;100.00
9523;BME280;63165;43.016;25.784;2022-12-07T06:45:11;100115.19;;;7.30;100.00
9523;BME280;63165;43.016;25.784;2022-12-07T06:51:31;100130.78;;;7.29;100.00
9523;BME280;63165;43.016;25.784;2022-12-07T06:54:01;100122.97;;;7.27;100.00
9523;BME280;63165;43.016;25.784;2022-12-07T06:56:28;100121.25;;;7.31;100.00
9523;BME280;63165;43.016;25.784;2022-12-07T06:58:57;100123.84;;;7.32;100.00
9523;BME280;63165;43.016;25.784;2022-12-07T07:01:46;100116.91;;;7.34;100.00
9523;BME280;63165;43.016;25.784;2022-12-07T07:04:14;100110.84;;;7.34;100.00
9523;BME280;63165;43.016;25.784;2022-12-07T07:09:49;100112.53;;;7.35;100.00
9523;BME280;63165;43.016;25.784;2022-12-07T07:12:36;100100.41;;;7.34;100.00
9523;BME280;63165;43.016;25.784;2022-12-07T07:15:10;100104.75;;;7.36;100.00
9523;BME280;63165;43.016;25.784;2022-12-07T07:17:38;100111.69;;;7.36;100.00
9523;BME280;63165;43.016;25.784;2022-12-07T07:20:06;100111.69;;;7.39;100.00
9523;BME280;63165;43.016;25.784;2022-12-07T07:22:33;100103.84;;;7.41;100.00
9523;BME280;63165;43.016;25.784;2022-12-07T07:25:03;100104.72;;;7.44;100.00
9523;BME280;63165;43.016;25.784;2022-12-07T07:27:31;100109.06;;;7.48;100.00
9523;BME280;63165;43.016;25.784;2022-12-07T07:29:58;100106.44;;;7.50;100.00
9523;BME280;63165;43.016;25.784;2022-12-07T07:32:27;100109.03;;;7.51;100.00
9523;BME280;63165;43.016;25.784;2022-12-07T07:34:54;100109.91;;;7.47;100.00
9523;BME280;63165;43.016;25.784;2022-12-07T07:37:21;100122.94;;;7.47;100.00
9523;BME280;63165;43.016;25.784;2022-12-07T07:39:49;100122.06;;;7.50;100.00
9523;BME280;63165;43.016;25.784;2022-12-07T07:42:16;100122.94;;;7.52;100.00
9523;BME280;63165;43.016;25.784;2022-12-07T07:44:43;100118.59;;;7.54;100.00
9523;BME280;63165;43.016;25.784;2022-12-07T07:47:10;100131.63;;;7.54;100.00
9523;BME280;63165;43.016;25.784;2022-12-07T07:49:41;100132.47;;;7.54;100.00
9523;BME280;63165;43.016;25.784;2022-12-07T07:52:08;100142.88;;;7.54;100.00
9523;BME280;63165;43.016;25.784;2022-12-07T07:54:35;100145.50;;;7.56;100.00
9523;BME280;63165;43.016;25.784;2022-12-07T07:57:03;100153.28;;;7.61;100.00
9523;BME280;63165;43.016;25.784;2022-12-07T07:59:30;100135.91;;;7.64;100.00
9523;BME280;63165;43.016;25.784;2022-12-07T08:01:57;100134.16;;;7.66;100.00
9523;BME280;63165;43.016;25.784;2022-12-07T08:04:25;100141.97;;;7.65;100.00
9523;BME280;63165;43.016;25.784;2022-12-07T08:06:53;100151.53;;;7.67;100.00
9523;BME280;63165;43.016;25.784;2022-12-07T08:09:22;100140.22;;;7.71;100.00
9523;BME280;63165;43.016;25.784;2022-12-07T08:12:05;100133.28;;;7.75;100.00
9523;BME280;63165;43.016;25.784;2022-12-07T08:14:32;100132.38;;;7.76;100.00
9523;BME280;63165;43.016;25.784;2022-12-07T08:17:00;100121.09;;;7.80;100.00
9523;BME280;63165;43.016;25.784;2022-12-07T08:19:28;100125.41;;;7.84;100.00
9523;BME280;63165;43.016;25.784;2022-12-07T08:21:57;100128.00;;;7.87;100.00
9523;BME280;63165;43.016;25.784;2022-12-07T08:24:26;100126.25;;;7.92;100.00
9523;BME280;63165;43.016;25.784;2022-12-07T08:26:53;100115.81;;;7.91;100.00
9523;BME280;63165;43.016;25.784;2022-12-07T08:29:21;100123.66;;;7.89;100.00
9523;BME280;63165;43.016;25.784;2022-12-07T08:31:49;100121.06;;;7.86;100.00
9523;BME280;63165;43.016;25.784;2022-12-07T08:34:17;100107.16;;;7.89;100.00
9523;BME280;63165;43.016;25.784;2022-12-07T08:36:44;100108.84;;;7.93;100.00
9523;BME280;63165;43.016;25.784;2022-12-07T08:39:15;100100.19;;;7.95;100.00
9523;BME280;63165;43.016;25.784;2022-12-07T08:41:42;100095.81;;;7.96;100.00
9523;BME280;63165;43.016;25.784;2022-12-07T08:44:25;100097.56;;;7.97;100.00
9523;BME280;63165;43.016;25.784;2022-12-07T08:47:06;100094.06;;;8.00;100.00
9523;BME280;63165;43.016;25.784;2022-12-07T08:49:38;100084.50;;;8.03;100.00
9523;BME280;63165;43.016;25.784;2022-12-07T08:52:11;100087.06;;;8.09;100.00
9523;BME280;63165;43.016;25.784;2022-12-07T08:55:16;100085.31;;;8.14;100.00
9523;BME280;63165;43.016;25.784;2022-12-07T08:57:43;100087.00;;;8.17;100.00
9523;BME280;63165;43.016;25.784;2022-12-07T09:00:12;100080.09;;;8.18;100.00
9523;BME280;63165;43.016;25.784;2022-12-07T09:02:40;100080.03;;;8.25;100.00
9523;BME280;63165;43.016;25.784;2022-12-07T09:05:08;100079.97;;;8.30;100.00
9523;BME280;63165;43.016;25.784;2022-12-07T09:07:36;100078.22;;;8.32;100.00
9523;BME280;63165;43.016;25.784;2022-12-07T09:10:05;100077.38;;;8.34;100.00
9523;BME280;63165;43.016;25.784;2022-12-07T09:12:34;100070.34;;;8.41;100.00
9523;BME280;63165;43.016;25.784;2022-12-07T09:15:02;100076.44;;;8.46;100.00
9523;BME280;63165;43.016;25.784;2022-12-07T09:17:32;100068.56;;;8.52;100.00
9523;BME280;63165;43.016;25.784;2022-12-07T09:20:00;100067.69;;;8.55;100.00
9523;BME280;63165;43.016;25.784;2022-12-07T09:22:29;100065.88;;;8.62;100.00
9523;BME280;63165;43.016;25.784;2022-12-07T09:24:56;100053.59;;;8.74;100.00
9523;BME280;63165;43.016;25.784;2022-12-07T09:27:23;100047.41;;;8.85;100.00
9523;BME280;63165;43.016;25.784;2022-12-07T09:29:52;100049.94;;;8.94;100.00
9523;BME280;63165;43.016;25.784;2022-12-07T09:32:19;100036.84;;;8.97;100.00
9523;BME280;63165;43.016;25.784;2022-12-07T09:34:46;100044.59;;;9.05;100.00
9523;BME280;63165;43.016;25.784;2022-12-07T09:37:13;100030.63;;;9.09;100.00
9523;BME280;63165;43.016;25.784;2022-12-07T09:39:41;100033.97;;;9.22;100.00
9523;BME280;63165;43.016;25.784;2022-12-07T09:42:08;100030.41;;;9.27;100.00
9523;BME280;63165;43.016;25.784;2022-12-07T09:44:36;100033.88;;;9.31;99.63
9523;BME280;63165;43.016;25.784;2022-12-07T09:47:05;100028.59;;;9.37;99.29
9523;BME280;63165;43.016;25.784;2022-12-07T09:49:33;100021.53;;;9.42;99.51
9523;BME280;63165;43.016;25.784;2022-12-07T09:52:04;100020.59;;;9.49;99.31
9523;BME280;63165;43.016;25.784;2022-12-07T09:54:46;100015.31;;;9.54;98.72
9523;BME280;63165;43.016;25.784;2022-12-07T09:57:14;100011.75;;;9.60;98.68
9523;BME280;63165;43.016;25.784;2022-12-07T09:59:42;100009.91;;;9.68;98.30
9523;BME280;63165;43.016;25.784;2022-12-07T10:02:25;100002.88;;;9.73;97.55
9523;BME280;63165;43.016;25.784;2022-12-07T10:04:59;100003.69;;;9.78;97.10
9523;BME280;63165;43.016;25.784;2022-12-07T10:07:40;100000.09;;;9.84;96.83
9523;BME280;63165;43.016;25.784;2022-12-07T10:10:14;99994.84;;;9.85;95.35
9523;BME280;63165;43.016;25.784;2022-12-07T10:12:59;99984.34;;;9.90;95.45
9523;BME280;63165;43.016;25.784;2022-12-07T10:15:48;99989.56;;;9.88;94.19
9523;BME280;63165;43.016;25.784;2022-12-07T10:18:28;99981.72;;;9.90;94.89
9523;BME280;63165;43.016;25.784;2022-12-07T10:21:06;99980.78;;;9.94;94.56
9523;BME280;63165;43.016;25.784;2022-12-07T10:23:37;99972.88;;;9.99;94.32
9523;BME280;63165;43.016;25.784;2022-12-07T10:26:27;99971.13;;;9.99;94.16
9523;BME280;63165;43.016;25.784;2022-12-07T10:28:57;99964.13;;;10.01;94.21
9523;BME280;63165;43.016;25.784;2022-12-07T10:31:25;99958.91;;;10.01;94.17
9523;BME280;63165;43.016;25.784;2022-12-07T10:33:55;99954.53;;;10.02;93.24
9523;BME280;63165;43.016;25.784;2022-12-07T10:36:38;99948.34;;;10.06;93.86
9523;BME280;63165;43.016;25.784;2022-12-07T10:39:13;99949.16;;;10.09;93.41
9523;BME280;63165;43.016;25.784;2022-12-07T10:41:53;99949.03;;;10.17;92.67
9523;BME280;63165;43.016;25.784;2022-12-07T10:44:24;99947.19;;;10.24;93.50
9523;BME280;63165;43.016;25.784;2022-12-07T10:47:16;99945.31;;;10.34;93.27
9523;BME280;63165;43.016;25.784;2022-12-07T10:53:12;99945.94;;;10.48;91.88
9523;BME280;63165;43.016;25.784;2022-12-07T10:55:56;99937.13;;;10.54;91.85
9523;BME280;63165;43.016;25.784;2022-12-07T10:58:36;99936.16;;;10.58;91.45
9523;BME280;63165;43.016;25.784;2022-12-07T11:01:15;99929.97;;;10.63;91.42
9523;BME280;63165;43.016;25.784;2022-12-07T11:04:08;99921.13;;;10.69;91.03
9523;BME280;63165;43.016;25.784;2022-12-07T11:06:49;99925.34;;;10.76;90.50
9523;BME280;63165;43.016;25.784;2022-12-07T11:12:36;99915.53;;;10.87;90.02
9523;BME280;63165;43.016;25.784;2022-12-07T11:15:13;99921.56;;;10.91;89.41
9523;BME280;63165;43.016;25.784;2022-12-07T11:17:50;99913.69;;;10.93;89.37
9523;BME280;63165;43.016;25.784;2022-12-07T11:20:31;99912.72;;;10.98;89.08
9523;BME280;63165;43.016;25.784;2022-12-07T11:23:10;99915.13;;;11.07;90.07
9523;BME280;63165;43.016;25.784;2022-12-07T11:25:46;99914.06;;;11.16;89.83
9523;BME280;63165;43.016;25.784;2022-12-07T11:28:31;99900.84;;;11.22;89.25
9523;BME280;63165;43.016;25.784;2022-12-07T11:31:12;99906.81;;;11.29;89.03
9523;BME280;63165;43.016;25.784;2022-12-07T11:33:44;99898.78;;;11.37;88.45
9523;BME280;63165;43.016;25.784;2022-12-07T11:36:24;99897.84;;;11.41;88.49
9523;BME280;63165;43.016;25.784;2022-12-07T11:39:00;99898.59;;;11.44;88.28
9523;BME280;63165;43.016;25.784;2022-12-07T11:41:31;99891.59;;;11.46;87.96
9523;BME280;63165;43.016;25.784;2022-12-07T11:44:07;99890.69;;;11.48;87.05
9523;BME280;63165;43.016;25.784;2022-12-07T11:46:45;99879.16;;;11.55;87.35
9523;BME280;63165;43.016;25.784;2022-12-07T11:49:21;99876.34;;;11.62;87.68
9523;BME280;63165;43.016;25.784;2022-12-07T11:51:53;99878.91;;;11.65;87.60
9523;BME280;63165;43.016;25.784;2022-12-07T11:54:28;99871.78;;;11.71;87.32
9523;BME280;63165;43.016;25.784;2022-12-07T11:57:02;99862.06;;;11.76;86.45
9523;BME280;63165;43.016;25.784;2022-12-07T11:59:36;99860.22;;;11.79;86.10
9523;BME280;63165;43.016;25.784;2022-12-07T12:02:13;99863.59;;;11.84;86.18
9523;BME280;63165;43.016;25.784;2022-12-07T12:04:51;99861.75;;;11.90;85.59
9523;BME280;63165;43.016;25.784;2022-12-07T12:07:23;99852.94;;;11.92;85.72
9523;BME280;63165;43.016;25.784;2022-12-07T12:09:53;99859.88;;;11.95;85.79
9523;BME280;63165;43.016;25.784;2022-12-07T12:15:35;99842.22;;;12.01;84.89
9523;BME280;63165;43.016;25.784;2022-12-07T12:18:18;99847.50;;;12.00;84.31
9523;BME280;63165;43.016;25.784;2022-12-07T12:20:54;99837.03;;;12.00;83.86
9523;BME280;63165;43.016;25.784;2022-12-07T12:23:27;99832.56;;;12.03;83.70
9523;BME280;63165;43.016;25.784;2022-12-07T12:26:03;99831.72;;;12.03;83.70
9523;BME280;63165;43.016;25.784;2022-12-07T12:28:37;99826.44;;;12.04;82.63
9523;BME280;63165;43.016;25.784;2022-12-07T12:31:11;99833.34;;;12.07;82.88
9523;BME280;63165;43.016;25.784;2022-12-07T12:33:43;99824.56;;;12.08;83.38
9523;BME280;63165;43.016;25.784;2022-12-07T12:36:21;99826.22;;;12.12;82.61
9523;BME280;63165;43.016;25.784;2022-12-07T12:38:51;99818.25;;;12.15;82.87
9523;BME280;63165;43.016;25.784;2022-12-07T12:41:50;99816.44;;;12.17;81.81
9523;BME280;63165;43.016;25.784;2022-12-07T12:45:04;99811.19;;;12.17;82.31
9523;BME280;63165;43.016;25.784;2022-12-07T12:47:58;99814.78;;;12.15;81.79
9523;BME280;63165;43.016;25.784;2022-12-07T12:50:28;99814.81;;;12.13;82.73
9523;BME280;63165;43.016;25.784;2022-12-07T12:53:02;99816.63;;;12.11;82.43
9523;BME280;63165;43.016;25.784;2022-12-07T12:56:00;99806.13;;;12.11;81.91
9523;BME280;63165;43.016;25.784;2022-12-07T12:58:38;99804.34;;;12.12;82.08
9523;BME280;63165;43.016;25.784;2022-12-07T13:04:27;99801.09;;;12.03;82.36
9523;BME280;63165;43.016;25.784;2022-12-07T13:06:56;99805.53;;;12.01;82.61
9523;BME280;63165;43.016;25.784;2022-12-07T13:09:26;99799.53;;;11.96;82.47
9523;BME280;63165;43.016;25.784;2022-12-07T13:12:03;99797.88;;;11.94;82.08
9523;BME280;63165;43.016;25.784;2022-12-07T13:18:00;99793.59;;;11.88;82.22
9523;BME280;63165;43.016;25.784;2022-12-07T13:20:56;99797.13;;;11.87;82.67
9523;BME280;63165;43.016;25.784;2022-12-07T13:23:27;99794.50;;;11.87;82.48
9523;BME280;63165;43.016;25.784;2022-12-07T13:26:01;99789.28;;;11.85;82.72
9523;BME280;63165;43.016;25.784;2022-12-07T13:28:34;99786.72;;;11.84;82.97
9523;BME280;63165;43.016;25.784;2022-12-07T13:31:33;99785.84;;;11.83;82.78
9523;BME280;63165;43.016;25.784;2022-12-07T13:34:02;99792.00;;;11.82;83.45
9523;BME280;63165;43.016;25.784;2022-12-07T13:36:32;99793.72;;;11.83;83.69
9523;BME280;63165;43.016;25.784;2022-12-07T13:39:15;99795.50;;;11.81;84.04
9523;BME280;63165;43.016;25.784;2022-12-07T13:41:48;99808.56;;;11.84;84.17
9523;BME280;63165;43.016;25.784;2022-12-07T13:44:16;99805.94;;;11.84;84.03
9523;BME280;63165;43.016;25.784;2022-12-07T13:46:49;99798.94;;;11.83;84.48
9523;BME280;63165;43.016;25.784;2022-12-07T13:49:22;99796.38;;;11.82;84.60
9523;BME280;63165;43.016;25.784;2022-12-07T13:51:52;99795.50;;;11.81;85.05
9523;BME280;63165;43.016;25.784;2022-12-07T13:54:20;99800.72;;;11.83;85.55
9523;BME280;63165;43.016;25.784;2022-12-07T13:56:50;99802.53;;;11.81;85.65